sensor_id;sensor_type;location;lat;lon;timestamp;P1;durP1;ratioP1;P2;durP2;ratioP2
11620;SDS011;5866;49.094;11.900;2023-12-20T00:00:38;50.67;;;47.87;;
11620;SDS011;5866;49.094;11.900;2023-12-20T00:03:05;54.30;;;51.27;;
11620;SDS011;5866;49.094;11.900;2023-12-20T00:05:33;44.37;;;41.87;;
11620;SDS011;5866;49.094;11.900;2023-12-20T00:08:02;47.03;;;44.43;;
11620;SDS011;5866;49.094;11.900;2023-12-20T00:10:32;43.27;;;40.77;;
11620;SDS011;5866;49.094;11.900;2023-12-20T00:13:00;47.37;;;44.77;;
11620;SDS011;5866;49.094;11.900;2023-12-20T00:15:28;50.40;;;47.60;;
11620;SDS011;5866;49.094;11.900;2023-12-20T00:17:55;49.33;;;46.50;;
11620;SDS011;5866;49.094;11.900;2023-12-20T00:20:23;52.47;;;49.53;;
11620;SDS011;5866;49.094;11.900;2023-12-20T00:22:51;47.97;;;45.17;;
11620;SDS011;5866;49.094;11.900;2023-12-20T00:25:18;51.00;;;48.10;;
11620;SDS011;5866;49.094;11.900;2023-12-20T00:27:47;51.13;;;48.13;;
11620;SDS011;5866;49.094;11.900;2023-12-20T00:30:15;50.07;;;47.17;;
11620;SDS011;5866;49.094;11.900;2023-12-20T00:32:42;51.33;;;48.53;;
11620;SDS011;5866;49.094;11.900;2023-12-20T00:35:12;47.20;;;44.60;;
11620;SDS011;5866;49.094;11.900;2023-12-20T00:37:40;49.93;;;47.13;;
11620;SDS011;5866;49.094;11.900;2023-12-20T00:40:09;52.93;;;49.93;;
11620;SDS011;5866;49.094;11.900;2023-12-20T00:42:37;52.57;;;49.57;;
11620;SDS011;5866;49.094;11.900;2023-12-20T00:45:06;51.87;;;48.87;;
11620;SDS011;5866;49.094;11.900;2023-12-20T00:47:34;53.90;;;50.80;;
11620;SDS011;5866;49.094;11.900;2023-12-20T00:50:02;47.27;;;44.43;;
11620;SDS011;5866;49.094;11.900;2023-12-20T00:52:30;44.80;;;42.17;;
11620;SDS011;5866;49.094;11.900;2023-12-20T00:54:58;35.73;;;33.53;;
11620;SDS011;5866;49.094;11.900;2023-12-20T00:57:26;36.27;;;34.07;;
11620;SDS011;5866;49.094;11.900;2023-12-20T00:59:53;30.43;;;28.63;;
11620;SDS011;5866;49.094;11.900;2023-12-20T01:02:22;29.07;;;27.27;;
11620;SDS011;5866;49.094;11.900;2023-12-20T01:04:50;28.70;;;26.90;;
11620;SDS011;5866;49.094;11.900;2023-12-20T01:07:17;22.03;;;20.53;;
11620;SDS011;5866;49.094;11.900;2023-12-20T01:09:45;15.70;;;14.60;;
11620;SDS011;5866;49.094;11.900;2023-12-20T01:12:13;12.23;;;11.30;;
11620;SDS011;5866;49.094;11.900;2023-12-20T01:14:40;10.37;;;9.47;;
11620;SDS011;5866;49.094;11.900;2023-12-20T01:17:08;9.23;;;8.53;;
11620;SDS011;5866;49.094;11.900;2023-12-20T01:19:37;8.30;;;7.20;;
11620;SDS011;5866;49.094;11.900;2023-12-20T01:22:05;7.83;;;6.00;;
11620;SDS011;5866;49.094;11.900;2023-12-20T01:24:32;8.63;;;6.20;;
11620;SDS011;5866;49.094;11.900;2023-12-20T01:27:00;6.83;;;6.13;;
11620;SDS011;5866;49.094;11.900;2023-12-20T01:29:28;8.00;;;6.50;;
11620;SDS011;5866;49.094;11.900;2023-12-20T01:31:56;6.80;;;6.07;;
11620;SDS011;5866;49.094;11.900;2023-12-20T01:34:23;9.90;;;6.83;;
11620;SDS011;5866;49.094;11.900;2023-12-20T01:36:52;9.47;;;7.60;;
11620;SDS011;5866;49.094;11.900;2023-12-20T01:39:20;9.40;;;7.27;;
11620;SDS011;5866;49.094;11.900;2023-12-20T01:41:55;9.40;;;8.40;;
11620;SDS011;5866;49.094;11.900;2023-12-20T01:44:22;10.40;;;9.40;;
11620;SDS011;5866;49.094;11.900;2023-12-20T01:46:50;12.70;;;11.50;;
11620;SDS011;5866;49.094;11.900;2023-12-20T01:49:18;17.77;;;15.30;;
11620;SDS011;5866;49.094;11.900;2023-12-20T01:51:47;14.93;;;13.67;;
11620;SDS011;5866;49.094;11.900;2023-12-20T01:54:16;12.70;;;11.40;;
11620;SDS011;5866;49.094;11.900;2023-12-20T01:56:46;12.30;;;11.07;;
11620;SDS011;5866;49.094;11.900;2023-12-20T01:59:16;11.17;;;9.97;;
11620;SDS011;5866;49.094;11.900;2023-12-20T02:01:46;10.80;;;9.63;;
11620;SDS011;5866;49.094;11.900;2023-12-20T02:04:14;12.47;;;11.17;;
11620;SDS011;5866;49.094;11.900;2023-12-20T02:06:42;12.53;;;11.23;;
11620;SDS011;5866;49.094;11.900;2023-12-20T02:09:12;12.93;;;11.53;;
11620;SDS011;5866;49.094;11.900;2023-12-20T02:11:43;13.23;;;11.90;;
11620;SDS011;5866;49.094;11.900;2023-12-20T02:14:11;13.93;;;12.23;;
11620;SDS011;5866;49.094;11.900;2023-12-20T02:16:38;15.30;;;11.97;;
11620;SDS011;5866;49.094;11.900;2023-12-20T02:19:07;15.53;;;13.93;;
11620;SDS011;5866;49.094;11.900;2023-12-20T02:21:41;17.70;;;16.10;;
11620;SDS011;5866;49.094;11.900;2023-12-20T02:24:09;17.90;;;16.40;;
11620;SDS011;5866;49.094;11.900;2023-12-20T02:26:37;20.00;;;18.30;;
11620;SDS011;5866;49.094;11.900;2023-12-20T02:29:04;20.20;;;18.60;;
11620;SDS011;5866;49.094;11.900;2023-12-20T02:31:32;20.53;;;17.43;;
11620;SDS011;5866;49.094;11.900;2023-12-20T02:33:59;23.20;;;21.07;;
11620;SDS011;5866;49.094;11.900;2023-12-20T02:36:27;25.10;;;23.20;;
11620;SDS011;5866;49.094;11.900;2023-12-20T02:38:56;20.67;;;18.97;;
11620;SDS011;5866;49.094;11.900;2023-12-20T02:41:24;20.23;;;18.53;;
11620;SDS011;5866;49.094;11.900;2023-12-20T02:43:51;19.83;;;17.90;;
11620;SDS011;5866;49.094;11.900;2023-12-20T02:46:19;17.80;;;16.10;;
11620;SDS011;5866;49.094;11.900;2023-12-20T02:48:46;19.57;;;17.70;;
11620;SDS011;5866;49.094;11.900;2023-12-20T02:51:14;20.57;;;18.83;;
11620;SDS011;5866;49.094;11.900;2023-12-20T02:53:42;21.60;;;19.70;;
11620;SDS011;5866;49.094;11.900;2023-12-20T02:56:10;18.97;;;17.17;;
11620;SDS011;5866;49.094;11.900;2023-12-20T02:58:38;18.87;;;17.17;;
11620;SDS011;5866;49.094;11.900;2023-12-20T03:01:06;18.60;;;16.90;;
11620;SDS011;5866;49.094;11.900;2023-12-20T03:03:33;19.73;;;17.93;;
11620;SDS011;5866;49.094;11.900;2023-12-20T03:06:00;22.97;;;21.07;;
11620;SDS011;5866;49.094;11.900;2023-12-20T03:08:28;18.03;;;16.47;;
11620;SDS011;5866;49.094;11.900;2023-12-20T03:10:58;18.17;;;16.27;;
11620;SDS011;5866;49.094;11.900;2023-12-20T03:13:28;18.63;;;16.97;;
11620;SDS011;5866;49.094;11.900;2023-12-20T03:15:55;20.03;;;18.20;;
11620;SDS011;5866;49.094;11.900;2023-12-20T03:18:23;18.93;;;17.23;;
11620;SDS011;5866;49.094;11.900;2023-12-20T03:20:51;16.33;;;14.83;;
11620;SDS011;5866;49.094;11.900;2023-12-20T03:23:19;17.50;;;15.73;;
11620;SDS011;5866;49.094;11.900;2023-12-20T03:25:46;16.03;;;14.53;;
11620;SDS011;5866;49.094;11.900;2023-12-20T03:28:14;17.20;;;15.50;;
11620;SDS011;5866;49.094;11.900;2023-12-20T03:30:43;18.90;;;17.13;;
11620;SDS011;5866;49.094;11.900;2023-12-20T03:33:11;15.47;;;13.97;;
11620;SDS011;5866;49.094;11.900;2023-12-20T03:35:38;15.63;;;14.07;;
11620;SDS011;5866;49.094;11.900;2023-12-20T03:38:06;17.20;;;15.27;;
11620;SDS011;5866;49.094;11.900;2023-12-20T03:40:34;14.33;;;12.63;;
11620;SDS011;5866;49.094;11.900;2023-12-20T03:43:01;12.77;;;11.53;;
11620;SDS011;5866;49.094;11.900;2023-12-20T03:45:29;13.07;;;10.70;;
11620;SDS011;5866;49.094;11.900;2023-12-20T03:47:58;12.10;;;10.37;;
11620;SDS011;5866;49.094;11.900;2023-12-20T03:50:26;12.80;;;11.50;;
11620;SDS011;5866;49.094;11.900;2023-12-20T03:52:54;14.40;;;13.00;;
11620;SDS011;5866;49.094;11.900;2023-12-20T03:55:22;13.87;;;12.13;;
11620;SDS011;5866;49.094;11.900;2023-12-20T03:57:49;14.17;;;12.90;;
11620;SDS011;5866;49.094;11.900;2023-12-20T04:00:17;11.93;;;10.73;;
11620;SDS011;5866;49.094;11.900;2023-12-20T04:02:45;13.77;;;12.53;;
11620;SDS011;5866;49.094;11.900;2023-12-20T04:05:14;13.77;;;12.47;;
11620;SDS011;5866;49.094;11.900;2023-12-20T04:07:42;12.17;;;10.97;;
11620;SDS011;5866;49.094;11.900;2023-12-20T04:10:10;14.40;;;13.10;;
11620;SDS011;5866;49.094;11.900;2023-12-20T04:12:38;17.47;;;16.17;;
11620;SDS011;5866;49.094;11.900;2023-12-20T04:15:06;14.37;;;13.17;;
11620;SDS011;5866;49.094;11.900;2023-12-20T04:17:36;19.10;;;17.70;;
11620;SDS011;5866;49.094;11.900;2023-12-20T04:20:04;21.97;;;20.57;;
11620;SDS011;5866;49.094;11.900;2023-12-20T04:22:34;14.20;;;12.87;;
11620;SDS011;5866;49.094;11.900;2023-12-20T04:25:02;19.87;;;18.57;;
11620;SDS011;5866;49.094;11.900;2023-12-20T04:27:30;19.80;;;18.53;;
11620;SDS011;5866;49.094;11.900;2023-12-20T04:29:57;20.13;;;18.93;;
11620;SDS011;5866;49.094;11.900;2023-12-20T04:32:25;14.47;;;13.53;;
11620;SDS011;5866;49.094;11.900;2023-12-20T04:34:52;32.40;;;30.47;;
11620;SDS011;5866;49.094;11.900;2023-12-20T04:37:20;18.57;;;17.37;;
11620;SDS011;5866;49.094;11.900;2023-12-20T04:39:49;14.20;;;13.40;;
11620;SDS011;5866;49.094;11.900;2023-12-20T04:42:17;27.57;;;25.97;;
11620;SDS011;5866;49.094;11.900;2023-12-20T04:44:44;19.07;;;17.97;;
11620;SDS011;5866;49.094;11.900;2023-12-20T04:47:12;15.67;;;14.83;;
11620;SDS011;5866;49.094;11.900;2023-12-20T04:49:40;27.70;;;26.13;;
11620;SDS011;5866;49.094;11.900;2023-12-20T04:52:07;8.60;;;7.90;;
11620;SDS011;5866;49.094;11.900;2023-12-20T04:54:35;9.47;;;8.87;;
11620;SDS011;5866;49.094;11.900;2023-12-20T04:57:04;7.23;;;6.80;;
11620;SDS011;5866;49.094;11.900;2023-12-20T04:59:32;11.40;;;10.77;;
11620;SDS011;5866;49.094;11.900;2023-12-20T05:01:59;7.40;;;7.00;;
11620;SDS011;5866;49.094;11.900;2023-12-20T05:04:27;8.10;;;7.60;;
11620;SDS011;5866;49.094;11.900;2023-12-20T05:06:55;7.80;;;7.30;;
11620;SDS011;5866;49.094;11.900;2023-12-20T05:09:22;8.93;;;8.43;;
11620;SDS011;5866;49.094;11.900;2023-12-20T05:11:50;8.47;;;7.87;;
11620;SDS011;5866;49.094;11.900;2023-12-20T05:14:19;9.23;;;8.63;;
11620;SDS011;5866;49.094;11.900;2023-12-20T05:16:47;11.53;;;10.90;;
11620;SDS011;5866;49.094;11.900;2023-12-20T05:19:14;9.03;;;8.33;;
11620;SDS011;5866;49.094;11.900;2023-12-20T05:21:42;8.50;;;8.00;;
11620;SDS011;5866;49.094;11.900;2023-12-20T05:24:09;8.93;;;8.43;;
11620;SDS011;5866;49.094;11.900;2023-12-20T05:26:37;9.07;;;8.57;;
11620;SDS011;5866;49.094;11.900;2023-12-20T05:29:05;7.90;;;7.50;;
11620;SDS011;5866;49.094;11.900;2023-12-20T05:31:33;8.23;;;7.77;;
11620;SDS011;5866;49.094;11.900;2023-12-20T05:34:01;10.73;;;10.13;;
11620;SDS011;5866;49.094;11.900;2023-12-20T05:36:29;10.90;;;10.30;;
11620;SDS011;5866;49.094;11.900;2023-12-20T05:38:57;7.13;;;6.70;;
11620;SDS011;5866;49.094;11.900;2023-12-20T05:41:24;8.90;;;8.37;;
11620;SDS011;5866;49.094;11.900;2023-12-20T05:43:52;9.43;;;8.93;;
11620;SDS011;5866;49.094;11.900;2023-12-20T05:46:19;7.67;;;6.97;;
11620;SDS011;5866;49.094;11.900;2023-12-20T05:48:49;9.07;;;8.57;;
11620;SDS011;5866;49.094;11.900;2023-12-20T05:51:17;8.47;;;7.97;;
11620;SDS011;5866;49.094;11.900;2023-12-20T05:53:45;8.40;;;7.90;;
11620;SDS011;5866;49.094;11.900;2023-12-20T05:56:13;7.40;;;7.00;;
11620;SDS011;5866;49.094;11.900;2023-12-20T05:58:40;16.73;;;15.83;;
11620;SDS011;5866;49.094;11.900;2023-12-20T06:01:08;20.43;;;19.33;;
11620;SDS011;5866;49.094;11.900;2023-12-20T06:03:36;18.90;;;17.90;;
11620;SDS011;5866;49.094;11.900;2023-12-20T06:06:06;10.90;;;10.30;;
11620;SDS011;5866;49.094;11.900;2023-12-20T06:08:42;7.77;;;7.37;;
11620;SDS011;5866;49.094;11.900;2023-12-20T06:11:10;8.33;;;7.83;;
11620;SDS011;5866;49.094;11.900;2023-12-20T06:13:39;6.73;;;6.33;;
11620;SDS011;5866;49.094;11.900;2023-12-20T06:16:06;6.73;;;6.33;;
11620;SDS011;5866;49.094;11.900;2023-12-20T06:18:34;6.60;;;6.20;;
11620;SDS011;5866;49.094;11.900;2023-12-20T06:21:03;5.50;;;5.20;;
11620;SDS011;5866;49.094;11.900;2023-12-20T06:23:34;6.83;;;6.33;;
11620;SDS011;5866;49.094;11.900;2023-12-20T06:26:02;14.10;;;13.37;;
11620;SDS011;5866;49.094;11.900;2023-12-20T06:28:30;12.20;;;11.60;;
11620;SDS011;5866;49.094;11.900;2023-12-20T06:30:57;16.30;;;15.40;;
11620;SDS011;5866;49.094;11.900;2023-12-20T06:33:27;12.43;;;11.77;;
11620;SDS011;5866;49.094;11.900;2023-12-20T06:35:55;15.10;;;14.30;;
11620;SDS011;5866;49.094;11.900;2023-12-20T06:38:23;9.63;;;9.13;;
11620;SDS011;5866;49.094;11.900;2023-12-20T06:40:52;14.50;;;13.80;;
11620;SDS011;5866;49.094;11.900;2023-12-20T06:43:20;13.27;;;12.57;;
11620;SDS011;5866;49.094;11.900;2023-12-20T06:46:07;14.90;;;14.10;;
11620;SDS011;5866;49.094;11.900;2023-12-20T06:48:35;9.10;;;8.63;;
11620;SDS011;5866;49.094;11.900;2023-12-20T06:51:03;10.20;;;9.67;;
11620;SDS011;5866;49.094;11.900;2023-12-20T06:53:30;8.40;;;7.90;;
11620;SDS011;5866;49.094;11.900;2023-12-20T06:55:59;10.60;;;10.00;;
11620;SDS011;5866;49.094;11.900;2023-12-20T06:58:27;9.63;;;9.13;;
11620;SDS011;5866;49.094;11.900;2023-12-20T07:00:54;10.83;;;10.23;;
11620;SDS011;5866;49.094;11.900;2023-12-20T07:03:22;14.57;;;13.80;;
11620;SDS011;5866;49.094;11.900;2023-12-20T07:05:50;13.17;;;12.47;;
11620;SDS011;5866;49.094;11.900;2023-12-20T07:08:18;13.67;;;12.97;;
11620;SDS011;5866;49.094;11.900;2023-12-20T07:10:45;19.47;;;18.47;;
11620;SDS011;5866;49.094;11.900;2023-12-20T07:13:14;10.63;;;10.03;;
11620;SDS011;5866;49.094;11.900;2023-12-20T07:15:42;13.57;;;12.87;;
11620;SDS011;5866;49.094;11.900;2023-12-20T07:18:10;10.50;;;9.90;;
11620;SDS011;5866;49.094;11.900;2023-12-20T07:20:38;12.90;;;12.30;;
11620;SDS011;5866;49.094;11.900;2023-12-20T07:23:05;16.80;;;15.90;;
11620;SDS011;5866;49.094;11.900;2023-12-20T07:25:33;18.27;;;17.37;;
11620;SDS011;5866;49.094;11.900;2023-12-20T07:28:01;11.00;;;10.40;;
11620;SDS011;5866;49.094;11.900;2023-12-20T07:30:30;15.23;;;14.33;;
11620;SDS011;5866;49.094;11.900;2023-12-20T07:32:57;11.07;;;10.40;;
11620;SDS011;5866;49.094;11.900;2023-12-20T07:35:25;4.83;;;4.63;;
11620;SDS011;5866;49.094;11.900;2023-12-20T07:37:53;8.57;;;8.00;;
11620;SDS011;5866;49.094;11.900;2023-12-20T07:40:20;7.93;;;7.53;;
11620;SDS011;5866;49.094;11.900;2023-12-20T07:42:50;10.57;;;9.73;;
11620;SDS011;5866;49.094;11.900;2023-12-20T07:45:17;6.33;;;6.03;;
11620;SDS011;5866;49.094;11.900;2023-12-20T07:47:46;7.20;;;6.80;;
11620;SDS011;5866;49.094;11.900;2023-12-20T07:50:15;7.70;;;7.30;;
11620;SDS011;5866;49.094;11.900;2023-12-20T07:52:43;8.93;;;8.50;;
11620;SDS011;5866;49.094;11.900;2023-12-20T07:55:11;11.00;;;10.40;;
11620;SDS011;5866;49.094;11.900;2023-12-20T07:57:38;11.87;;;11.13;;
11620;SDS011;5866;49.094;11.900;2023-12-20T08:00:06;12.93;;;12.13;;
11620;SDS011;5866;49.094;11.900;2023-12-20T08:02:34;13.20;;;12.50;;
11620;SDS011;5866;49.094;11.900;2023-12-20T08:05:03;18.87;;;17.87;;
11620;SDS011;5866;49.094;11.900;2023-12-20T08:07:31;15.03;;;14.23;;
11620;SDS011;5866;49.094;11.900;2023-12-20T08:09:59;17.13;;;16.23;;
11620;SDS011;5866;49.094;11.900;2023-12-20T08:12:27;16.50;;;15.60;;
11620;SDS011;5866;49.094;11.900;2023-12-20T08:14:54;22.77;;;21.57;;
11620;SDS011;5866;49.094;11.900;2023-12-20T08:17:23;20.57;;;19.47;;
11620;SDS011;5866;49.094;11.900;2023-12-20T08:19:51;21.43;;;20.33;;
11620;SDS011;5866;49.094;11.900;2023-12-20T08:22:20;21.10;;;20.00;;
11620;SDS011;5866;49.094;11.900;2023-12-20T08:24:47;19.03;;;18.03;;
11620;SDS011;5866;49.094;11.900;2023-12-20T08:27:15;16.10;;;15.20;;
11620;SDS011;5866;49.094;11.900;2023-12-20T08:29:43;22.50;;;21.30;;
11620;SDS011;5866;49.094;11.900;2023-12-20T08:32:11;12.67;;;11.87;;
11620;SDS011;5866;49.094;11.900;2023-12-20T08:34:38;12.33;;;11.63;;
11620;SDS011;5866;49.094;11.900;2023-12-20T08:37:06;12.13;;;11.53;;
11620;SDS011;5866;49.094;11.900;2023-12-20T08:39:35;8.60;;;8.10;;
11620;SDS011;5866;49.094;11.900;2023-12-20T08:42:03;10.70;;;10.10;;
11620;SDS011;5866;49.094;11.900;2023-12-20T08:44:31;14.17;;;13.37;;
11620;SDS011;5866;49.094;11.900;2023-12-20T08:46:58;11.20;;;10.60;;
11620;SDS011;5866;49.094;11.900;2023-12-20T08:49:26;17.07;;;16.17;;
11620;SDS011;5866;49.094;11.900;2023-12-20T08:51:54;16.57;;;15.67;;
11620;SDS011;5866;49.094;11.900;2023-12-20T08:54:22;20.20;;;19.10;;
11620;SDS011;5866;49.094;11.900;2023-12-20T08:56:52;20.43;;;19.33;;
11620;SDS011;5866;49.094;11.900;2023-12-20T08:59:19;19.80;;;18.70;;
11620;SDS011;5866;49.094;11.900;2023-12-20T09:01:47;15.43;;;14.60;;
11620;SDS011;5866;49.094;11.900;2023-12-20T09:04:20;25.03;;;23.73;;
11620;SDS011;5866;49.094;11.900;2023-12-20T09:06:48;25.90;;;24.50;;
11620;SDS011;5866;49.094;11.900;2023-12-20T09:09:15;31.33;;;29.67;;
11620;SDS011;5866;49.094;11.900;2023-12-20T09:11:43;33.97;;;32.13;;
11620;SDS011;5866;49.094;11.900;2023-12-20T09:14:13;16.67;;;15.77;;
11620;SDS011;5866;49.094;11.900;2023-12-20T09:16:41;15.17;;;14.27;;
11620;SDS011;5866;49.094;11.900;2023-12-20T09:19:09;14.53;;;13.73;;
11620;SDS011;5866;49.094;11.900;2023-12-20T09:21:36;30.33;;;28.57;;
11620;SDS011;5866;49.094;11.900;2023-12-20T09:24:04;27.40;;;25.83;;
11620;SDS011;5866;49.094;11.900;2023-12-20T09:26:32;33.87;;;31.83;;
11620;SDS011;5866;49.094;11.900;2023-12-20T09:29:00;32.07;;;30.23;;
11620;SDS011;5866;49.094;11.900;2023-12-20T09:31:29;30.40;;;28.60;;
11620;SDS011;5866;49.094;11.900;2023-12-20T09:33:56;23.67;;;22.07;;
11620;SDS011;5866;49.094;11.900;2023-12-20T09:36:24;21.77;;;20.50;;
11620;SDS011;5866;49.094;11.900;2023-12-20T09:38:53;31.90;;;30.10;;
11620;SDS011;5866;49.094;11.900;2023-12-20T09:41:21;21.30;;;20.10;;
11620;SDS011;5866;49.094;11.900;2023-12-20T09:43:51;22.57;;;21.17;;
11620;SDS011;5866;49.094;11.900;2023-12-20T09:46:21;34.87;;;32.90;;
11620;SDS011;5866;49.094;11.900;2023-12-20T09:48:55;66.57;;;62.33;;
11620;SDS011;5866;49.094;11.900;2023-12-20T09:51:23;20.93;;;19.73;;
11620;SDS011;5866;49.094;11.900;2023-12-20T09:53:52;29.37;;;27.63;;
11620;SDS011;5866;49.094;11.900;2023-12-20T09:56:22;31.50;;;29.57;;
11620;SDS011;5866;49.094;11.900;2023-12-20T09:58:50;15.37;;;14.43;;
11620;SDS011;5866;49.094;11.900;2023-12-20T10:01:18;12.73;;;11.93;;
11620;SDS011;5866;49.094;11.900;2023-12-20T10:03:46;12.87;;;12.17;;
11620;SDS011;5866;49.094;11.900;2023-12-20T10:06:15;48.30;;;45.27;;
11620;SDS011;5866;49.094;11.900;2023-12-20T10:08:44;19.50;;;18.40;;
11620;SDS011;5866;49.094;11.900;2023-12-20T10:11:11;49.70;;;46.27;;
11620;SDS011;5866;49.094;11.900;2023-12-20T10:13:40;43.97;;;40.47;;
11620;SDS011;5866;49.094;11.900;2023-12-20T10:16:08;6.80;;;6.40;;
11620;SDS011;5866;49.094;11.900;2023-12-20T10:18:35;27.17;;;25.37;;
11620;SDS011;5866;49.094;11.900;2023-12-20T10:21:05;53.57;;;50.00;;
11620;SDS011;5866;49.094;11.900;2023-12-20T10:23:35;67.00;;;62.80;;
11620;SDS011;5866;49.094;11.900;2023-12-20T10:26:03;13.20;;;12.43;;
11620;SDS011;5866;49.094;11.900;2023-12-20T10:28:32;12.07;;;11.37;;
11620;SDS011;5866;49.094;11.900;2023-12-20T10:31:01;18.63;;;17.27;;
11620;SDS011;5866;49.094;11.900;2023-12-20T10:33:30;24.87;;;23.37;;
11620;SDS011;5866;49.094;11.900;2023-12-20T10:35:59;16.20;;;15.33;;
11620;SDS011;5866;49.094;11.900;2023-12-20T10:38:27;17.10;;;16.10;;
11620;SDS011;5866;49.094;11.900;2023-12-20T10:40:57;10.57;;;9.97;;
11620;SDS011;5866;49.094;11.900;2023-12-20T10:43:26;15.23;;;14.43;;
11620;SDS011;5866;49.094;11.900;2023-12-20T10:45:56;47.10;;;44.20;;
11620;SDS011;5866;49.094;11.900;2023-12-20T10:48:24;103.90;;;96.80;;
11620;SDS011;5866;49.094;11.900;2023-12-20T10:50:56;17.47;;;16.47;;
11620;SDS011;5866;49.094;11.900;2023-12-20T10:53:24;46.87;;;44.07;;
11620;SDS011;5866;49.094;11.900;2023-12-20T10:55:52;12.13;;;11.43;;
11620;SDS011;5866;49.094;11.900;2023-12-20T10:58:23;6.60;;;6.20;;
11620;SDS011;5866;49.094;11.900;2023-12-20T11:00:54;6.43;;;6.03;;
11620;SDS011;5866;49.094;11.900;2023-12-20T11:03:27;16.57;;;15.63;;
11620;SDS011;5866;49.094;11.900;2023-12-20T11:05:58;23.53;;;21.90;;
11620;SDS011;5866;49.094;11.900;2023-12-20T11:08:32;54.10;;;51.03;;
11620;SDS011;5866;49.094;11.900;2023-12-20T11:11:04;30.60;;;28.87;;
11620;SDS011;5866;49.094;11.900;2023-12-20T11:13:40;31.77;;;30.07;;
11620;SDS011;5866;49.094;11.900;2023-12-20T11:16:15;33.03;;;31.23;;
11620;SDS011;5866;49.094;11.900;2023-12-20T11:18:44;30.43;;;28.83;;
11620;SDS011;5866;49.094;11.900;2023-12-20T11:21:12;16.53;;;15.50;;
11620;SDS011;5866;49.094;11.900;2023-12-20T11:23:40;13.30;;;12.40;;
11620;SDS011;5866;49.094;11.900;2023-12-20T11:26:09;15.30;;;14.47;;
11620;SDS011;5866;49.094;11.900;2023-12-20T11:28:38;20.00;;;18.97;;
11620;SDS011;5866;49.094;11.900;2023-12-20T11:31:06;14.10;;;13.13;;
11620;SDS011;5866;49.094;11.900;2023-12-20T11:33:37;15.13;;;14.00;;
11620;SDS011;5866;49.094;11.900;2023-12-20T11:36:12;21.17;;;19.60;;
11620;SDS011;5866;49.094;11.900;2023-12-20T11:38:49;9.00;;;8.20;;
11620;SDS011;5866;49.094;11.900;2023-12-20T11:41:22;9.83;;;9.33;;
11620;SDS011;5866;49.094;11.900;2023-12-20T11:43:51;15.27;;;14.37;;
11620;SDS011;5866;49.094;11.900;2023-12-20T11:46:20;9.90;;;9.20;;
11620;SDS011;5866;49.094;11.900;2023-12-20T11:48:48;8.63;;;8.13;;
11620;SDS011;5866;49.094;11.900;2023-12-20T11:51:15;7.33;;;6.83;;
11620;SDS011;5866;49.094;11.900;2023-12-20T11:53:43;8.83;;;8.10;;
11620;SDS011;5866;49.094;11.900;2023-12-20T11:56:11;10.37;;;9.77;;
11620;SDS011;5866;49.094;11.900;2023-12-20T11:58:39;9.53;;;8.93;;
11620;SDS011;5866;49.094;11.900;2023-12-20T12:01:09;6.50;;;5.90;;
11620;SDS011;5866;49.094;11.900;2023-12-20T12:03:37;9.13;;;8.53;;
11620;SDS011;5866;49.094;11.900;2023-12-20T12:06:04;8.30;;;7.50;;
11620;SDS011;5866;49.094;11.900;2023-12-20T12:08:34;13.60;;;12.80;;
11620;SDS011;5866;49.094;11.900;2023-12-20T12:11:02;15.97;;;14.87;;
11620;SDS011;5866;49.094;11.900;2023-12-20T12:13:30;24.77;;;23.37;;
11620;SDS011;5866;49.094;11.900;2023-12-20T12:15:58;18.83;;;17.70;;
11620;SDS011;5866;49.094;11.900;2023-12-20T12:18:27;18.60;;;17.57;;
11620;SDS011;5866;49.094;11.900;2023-12-20T12:20:59;18.30;;;17.30;;
11620;SDS011;5866;49.094;11.900;2023-12-20T12:23:27;27.10;;;25.50;;
11620;SDS011;5866;49.094;11.900;2023-12-20T12:25:55;22.10;;;20.90;;
11620;SDS011;5866;49.094;11.900;2023-12-20T12:28:25;26.20;;;24.67;;
11620;SDS011;5866;49.094;11.900;2023-12-20T12:30:57;33.90;;;31.87;;
11620;SDS011;5866;49.094;11.900;2023-12-20T12:33:25;21.67;;;20.37;;
11620;SDS011;5866;49.094;11.900;2023-12-20T12:35:54;18.50;;;17.30;;
11620;SDS011;5866;49.094;11.900;2023-12-20T12:38:22;12.80;;;12.00;;
11620;SDS011;5866;49.094;11.900;2023-12-20T12:40:51;12.13;;;11.37;;
11620;SDS011;5866;49.094;11.900;2023-12-20T12:43:20;13.30;;;12.40;;
11620;SDS011;5866;49.094;11.900;2023-12-20T12:45:49;14.27;;;13.37;;
11620;SDS011;5866;49.094;11.900;2023-12-20T12:48:16;19.03;;;17.87;;
11620;SDS011;5866;49.094;11.900;2023-12-20T12:50:45;66.63;;;62.67;;
11620;SDS011;5866;49.094;11.900;2023-12-20T12:53:13;64.10;;;60.07;;
11620;SDS011;5866;49.094;11.900;2023-12-20T12:55:40;28.00;;;26.40;;
11620;SDS011;5866;49.094;11.900;2023-12-20T12:58:08;31.73;;;30.03;;
11620;SDS011;5866;49.094;11.900;2023-12-20T13:00:36;23.30;;;22.10;;
11620;SDS011;5866;49.094;11.900;2023-12-20T13:03:03;20.57;;;19.47;;
11620;SDS011;5866;49.094;11.900;2023-12-20T13:05:30;18.10;;;17.00;;
11620;SDS011;5866;49.094;11.900;2023-12-20T13:08:02;15.00;;;14.10;;
11620;SDS011;5866;49.094;11.900;2023-12-20T13:10:33;16.00;;;15.00;;
11620;SDS011;5866;49.094;11.900;2023-12-20T13:13:01;17.00;;;16.00;;
11620;SDS011;5866;49.094;11.900;2023-12-20T13:15:30;26.33;;;24.50;;
11620;SDS011;5866;49.094;11.900;2023-12-20T13:17:58;40.07;;;37.67;;
11620;SDS011;5866;49.094;11.900;2023-12-20T13:20:26;36.40;;;34.43;;
11620;SDS011;5866;49.094;11.900;2023-12-20T13:22:54;36.40;;;34.47;;
11620;SDS011;5866;49.094;11.900;2023-12-20T13:25:21;35.43;;;33.53;;
11620;SDS011;5866;49.094;11.900;2023-12-20T13:27:51;44.80;;;42.20;;
11620;SDS011;5866;49.094;11.900;2023-12-20T13:30:19;54.50;;;51.40;;
11620;SDS011;5866;49.094;11.900;2023-12-20T13:32:46;45.83;;;43.40;;
11620;SDS011;5866;49.094;11.900;2023-12-20T13:35:15;43.90;;;41.50;;
11620;SDS011;5866;49.094;11.900;2023-12-20T13:37:43;59.97;;;56.53;;
11620;SDS011;5866;49.094;11.900;2023-12-20T13:40:11;67.93;;;64.10;;
11620;SDS011;5866;49.094;11.900;2023-12-20T13:42:39;100.43;;;94.53;;
11620;SDS011;5866;49.094;11.900;2023-12-20T13:45:09;23.50;;;22.20;;
11620;SDS011;5866;49.094;11.900;2023-12-20T13:47:36;26.97;;;24.13;;
11620;SDS011;5866;49.094;11.900;2023-12-20T13:50:05;30.90;;;28.83;;
11620;SDS011;5866;49.094;11.900;2023-12-20T13:52:33;34.13;;;32.10;;
11620;SDS011;5866;49.094;11.900;2023-12-20T13:55:04;3.97;;;3.60;;
11620;SDS011;5866;49.094;11.900;2023-12-20T13:57:34;11.27;;;10.40;;
11620;SDS011;5866;49.094;11.900;2023-12-20T14:00:10;7.13;;;6.63;;
11620;SDS011;5866;49.094;11.900;2023-12-20T14:02:41;10.13;;;9.47;;
11620;SDS011;5866;49.094;11.900;2023-12-20T14:05:09;6.50;;;6.00;;
11620;SDS011;5866;49.094;11.900;2023-12-20T14:07:37;5.80;;;5.30;;
11620;SDS011;5866;49.094;11.900;2023-12-20T14:10:05;3.90;;;3.30;;
11620;SDS011;5866;49.094;11.900;2023-12-20T14:12:33;13.67;;;12.87;;
11620;SDS011;5866;49.094;11.900;2023-12-20T14:15:03;5.17;;;4.77;;
11620;SDS011;5866;49.094;11.900;2023-12-20T14:17:36;4.67;;;4.20;;
11620;SDS011;5866;49.094;11.900;2023-12-20T14:20:05;5.17;;;4.77;;
11620;SDS011;5866;49.094;11.900;2023-12-20T14:22:34;12.57;;;11.57;;
11620;SDS011;5866;49.094;11.900;2023-12-20T14:25:03;27.00;;;25.40;;
11620;SDS011;5866;49.094;11.900;2023-12-20T14:27:32;46.53;;;44.03;;
11620;SDS011;5866;49.094;11.900;2023-12-20T14:30:00;65.73;;;62.10;;
11620;SDS011;5866;49.094;11.900;2023-12-20T14:32:27;28.47;;;26.63;;
11620;SDS011;5866;49.094;11.900;2023-12-20T14:34:56;25.03;;;23.57;;